| Date | Time | Temp. (oF) | Dew Point (oF) | Rel. Hum. (%) | Press. (in.) | Wind Dir. | Wind Speed (mph) | Hourly Rainfall (in.) |
|
|---|---|---|---|---|---|---|---|---|---|
| 1 | 08/07 | 00:00 | 72 | 69 | 91 | 30.15 | WNW | 0 | 0.00 |
| 2 | 08/06 | 23:00 | 73 | 67 | 83 | 30.15 | NNW | 0 | 0.00 |
| 3 | 08/06 | 22:00 | 76 | 67 | 75 | 30.14 | NNW | 0 | 0.00 |
| 4 | 08/06 | 21:00 | 79 | 67 | 69 | 30.14 | N | 0 | 0.00 |
| 5 | 08/06 | 20:00 | 81 | 66 | 61 | 30.12 | NNW | 3 | 0.00 |
| 6 | 08/06 | 19:00 | 83 | 66 | 57 | 30.12 | NNE | 4 | 0.00 |
| 7 | 08/06 | 18:00 | 84 | 64 | 53 | 30.13 | NW | 2 | 0.00 |
| 8 | 08/06 | 17:00 | 84 | 65 | 54 | 30.12 | W | 2 | 0.00 |
| 9 | 08/06 | 16:00 | 86 | 65 | 50 | 30.12 | WNW | 3 | 0.00 |
| 10 | 08/06 | 15:00 | 86 | 65 | 50 | 30.14 | SSW | 5 | 0.00 |
| 11 | 08/06 | 14:00 | 87 | 64 | 47 | 30.14 | N | 4 | 0.00 |
| 12 | 08/06 | 13:00 | 85 | 65 | 53 | 30.15 | NNE | 5 | 0.00 |
| 13 | 08/06 | 12:00 | 83 | 63 | 52 | 30.17 | NNW | 4 | 0.00 |
| 14 | 08/06 | 11:00 | 83 | 63 | 53 | 30.18 | NE | 6 | 0.00 |
| 15 | 08/06 | 10:00 | 79 | 64 | 61 | 30.18 | ENE | 6 | 0.00 |
| 16 | 08/06 | 09:00 | 78 | 63 | 62 | 30.18 | ENE | 4 | 0.00 |
| 17 | miss | miss | miss | miss | miss | miss | miss | miss | |
| 18 | 08/06 | 08:49 | 77 | 64 | 65 | 30.19 | E | 4 | 0.00 |
| 19 | miss | miss | miss | miss | miss | miss | miss | miss | |
| 20 | 08/06 | 08:47 | 77 | 64 | 65 | 30.18 | ESE | 3 | 0.00 |
| 21 | miss | miss | miss | miss | miss | miss | miss | miss | |
| 22 | 08/06 | 08:45 | 76 | 63 | 65 | 30.19 | NNE | 2 | 0.00 |
| 23 | miss | miss | miss | miss | miss | miss | miss | miss | |
| 24 | 08/06 | 08:43 | 76 | 64 | 67 | 30.19 | NNW | 4 | 0.00 |
| 25 | miss | miss | miss | miss | miss | miss | miss | miss | |
| 26 | 08/06 | 08:42 | 76 | 64 | 67 | 30.18 | NNE | 3 | 0.00 |
| 27 | miss | miss | miss | miss | miss | miss | miss | miss | |
| 28 | 08/06 | 08:42 | 76 | 64 | 67 | 30.18 | NNE | 3 | 0.00 |
| 29 | miss | miss | miss | miss | miss | miss | miss | miss | |
| 30 | 08/06 | 08:42 | 76 | 64 | 67 | 30.18 | NNE | 3 | 0.00 |
| 31 | miss | miss | miss | miss | miss | miss | miss | miss | |
| 32 | 08/06 | 08:42 | 76 | 64 | 67 | 30.18 | NNE | 3 | 0.00 |
| 33 | miss | miss | miss | miss | miss | miss | miss | miss | |
| 34 | 08/06 | 08:42 | 76 | 64 | 67 | 30.18 | NNE | 3 | 0.00 |
| 35 | miss | miss | miss | miss | miss | miss | miss | miss | |
| 36 | 08/06 | 08:42 | 76 | 64 | 67 | 30.18 | NNE | 3 | 0.00 |
| 37 | miss | miss | miss | miss | miss | miss | miss | miss | |
| 38 | 08/06 | 08:42 | 76 | 64 | 67 | 30.18 | NNE | 3 | 0.00 |
| 39 | miss | miss | miss | miss | miss | miss | miss | miss | |
| 40 | 08/06 | 08:42 | 76 | 64 | 67 | 30.18 | NNE | 3 | 0.00 |
| 41 | 08/06 | 08:00 | 73 | 64 | 75 | 30.18 | NNW | 2 | 0.00 |
| 42 | 08/06 | 07:00 | 73 | 65 | 78 | 30.17 | NNW | 3 | 0.00 |
| 43 | 08/06 | 06:00 | 74 | 66 | 78 | 30.15 | NNW | 1 | 0.00 |
| 44 | 08/06 | 05:00 | 74 | 66 | 77 | 30.13 | NNE | 2 | 0.00 |
| 45 | 08/06 | 04:00 | 76 | 67 | 75 | 30.11 | NNW | 5 | 0.00 |
| 46 | 08/06 | 03:00 | 77 | 69 | 79 | 30.11 | NNW | 4 | 0.00 |
| 47 | 08/06 | 02:00 | 78 | 70 | 79 | 30.12 | W | 2 | 0.00 |
| 48 | 08/06 | 01:00 | 78 | 71 | 81 | 30.13 | SW | 3 | 0.00 |
| 49 | 08/06 | 00:00 | 79 | 71 | 79 | 30.11 | W | 0 | 0.00 |
| 50 | 08/05 | 23:00 | 80 | 73 | 81 | 30.10 | NW | 4 | 0.00 |
| 51 | 08/05 | 22:00 | 81 | 73 | 79 | 30.10 | WSW | 2 | 0.00 |
| 52 | 08/05 | 21:00 | 82 | 73 | 75 | 30.07 | WSW | 2 | 0.00 |
| 53 | 08/05 | 20:00 | 85 | 73 | 69 | 30.05 | WSW | 2 | 0.00 |
| 54 | 08/05 | 19:00 | 86 | 73 | 66 | 30.04 | NNW | 4 | 0.00 |
| 55 | 08/05 | 18:00 | 89 | 72 | 58 | 30.03 | WNW | 5 | 0.00 |
| 56 | 08/05 | 17:00 | 89 | 74 | 62 | 30.05 | NW | 4 | 0.00 |
| 57 | 08/05 | 16:00 | 89 | 74 | 62 | 30.05 | WNW | 4 | 0.00 |
| 58 | 08/05 | 15:00 | 90 | 73 | 59 | 30.05 | NNW | 7 | 0.00 |
| 59 | 08/05 | 14:00 | 92 | 74 | 57 | 30.06 | WSW | 9 | 0.00 |
| 60 | 08/05 | 13:00 | 91 | 74 | 58 | 30.07 | SW | 8 | 0.00 |
| 61 | 08/05 | 12:00 | 91 | 72 | 56 | 30.08 | SW | 4 | 0.00 |
| 62 | 08/05 | 11:00 | 89 | 74 | 63 | 30.08 | W | 4 | 0.00 |
| 63 | miss | miss | miss | miss | miss | miss | miss | miss | |
| 64 | 08/05 | 10:14 | 86 | 74 | 69 | 30.08 | SSW | 6 | 0.00 |
| 65 | miss | miss | miss | miss | miss | miss | miss | miss | |
| 66 | 08/05 | 10:12 | 86 | 75 | 71 | 30.09 | SSW | 4 | 0.00 |
| 67 | miss | miss | miss | miss | miss | miss | miss | miss | |
| 68 | 08/05 | 10:10 | 86 | 75 | 71 | 30.09 | WSW | 5 | 0.00 |
| 69 | miss | miss | miss | miss | miss | miss | miss | miss | |
| 70 | 08/05 | 10:08 | 85 | 74 | 72 | 30.09 | SSW | 4 | 0.00 |
| 71 | miss | miss | miss | miss | miss | miss | miss | miss | |
| 72 | 08/05 | 10:06 | 85 | 74 | 71 | 30.09 | SW | 3 | 0.00 |
| 73 | miss | miss | miss | miss | miss | miss | miss | miss | |
| 74 | 08/05 | 10:05 | 85 | 74 | 71 | 30.09 | SSW | 4 | 0.00 |
| 75 | miss | miss | miss | miss | miss | miss | miss | miss | |
| 76 | 08/05 | 10:05 | 85 | 74 | 71 | 30.09 | SSW | 4 | 0.00 |
| 77 | miss | miss | miss | miss | miss | miss | miss | miss | |
| 78 | 08/05 | 10:05 | 85 | 74 | 71 | 30.09 | SSW | 4 | 0.00 |
| 79 | miss | miss | miss | miss | miss | miss | miss | miss | |
| 80 | 08/05 | 10:05 | 85 | 74 | 71 | 30.09 | SSW | 4 | 0.00 |
| 81 | miss | miss | miss | miss | miss | miss | miss | miss | |
| 82 | 08/05 | 10:05 | 85 | 74 | 71 | 30.09 | SSW | 4 | 0.00 |
| 83 | miss | miss | miss | miss | miss | miss | miss | miss | |
| 84 | 08/05 | 10:05 | 85 | 74 | 71 | 30.09 | SSW | 4 | 0.00 |
| 85 | miss | miss | miss | miss | miss | miss | miss | miss | |
| 86 | 08/05 | 10:05 | 85 | 74 | 71 | 30.09 | SSW | 4 | 0.00 |
| 87 | 08/05 | 10:00 | 85 | 74 | 71 | 30.08 | SW | 2 | 0.00 |
| 88 | 08/05 | 09:00 | 82 | 74 | 77 | 30.08 | SW | 2 | 0.00 |
| 89 | 08/05 | 08:00 | 77 | 73 | 90 | 30.08 | SSW | 0 | 0.00 |
| 90 | 08/05 | 07:00 | 76 | 71 | 85 | 30.07 | SSW | 0 | 0.00 |
| 91 | 08/05 | 06:00 | 78 | 71 | 80 | 30.07 | SSW | 0 | 0.00 |
| 92 | 08/05 | 05:00 | 80 | 71 | 76 | 30.06 | SW | 2 | 0.00 |
| 93 | 08/05 | 04:00 | 80 | 71 | 76 | 30.06 | WSW | 1 | 0.00 |
| 94 | 08/05 | 03:00 | 79 | 73 | 82 | 30.05 | SSW | 3 | 0.00 |
| 95 | 08/05 | 02:00 | 79 | 73 | 83 | 30.05 | SW | 2 | 0.00 |
| 96 | 08/05 | 01:00 | 80 | 74 | 83 | 30.05 | SSW | 4 | 0.00 |
| 97 | 08/05 | 00:00 | 78 | 74 | 88 | 30.04 | S | 2 | 0.00 |
| 98 | 08/04 | 23:00 | 80 | 73 | 82 | 30.05 | SSW | 1 | 0.00 |